Time;durP1;ratioP1;P1;durP2;ratioP2;P2;SDS_P1;SDS_P2;PMS_P1;PMS_P2;Temp;Humidity;BMP_temperature;BMP_pressure;BME280_temperature;BME280_humidity;BME280_pressure;Samples;Min_cycle;Max_cycle;Signal;HPM_P1;HPM_P2
2022/10/22 00:00:57;;;;;;;;;;;;;;;13.86;75.32;100841.53;5058092;28;19932;-51
2022/10/22 00:03:22;;;;;;;;;;;;;;;13.86;75.33;100847.69;5061321;28;20317;-52
2022/10/22 00:05:48;;;;;;;;;;;;;;;13.86;75.28;100841.53;5060234;28;20035;-51
2022/10/22 00:08:13;;;;;;;;;;;;;;;13.89;75.38;100841.31;5057782;28;19963;-50
2022/10/22 00:10:39;;;;;;;;;;;;;;;13.92;75.43;100840.25;5058431;28;19925;-50
2022/10/22 00:13:04;;;;;;;;;;;;;;;13.91;75.33;100823.56;5054871;28;19931;-53
2022/10/22 00:15:29;;;;;;;;;;;;;;;13.91;75.37;100810.34;5056375;28;19935;-50
2022/10/22 00:17:55;;;;;;;;;;;;;;;13.90;75.50;100808.63;5058326;28;19924;-50
2022/10/22 00:20:21;;;;;;;;;;;;;;;13.90;75.61;100806.00;5055980;28;19924;-53
2022/10/22 00:22:47;;;;;;;;;;;;;;;13.91;75.68;100810.34;5051782;28;19936;-52
2022/10/22 00:25:12;;;;;;;;;;;;;;;13.93;75.68;100818.16;5058204;28;20025;-50
2022/10/22 00:27:37;;;;;;;;;;;;;;;13.93;75.63;100821.66;5059463;28;19921;-50
2022/10/22 00:30:03;;;;;;;;;;;;;;;13.94;75.67;100827.78;5055471;28;20871;-54
2022/10/22 00:32:28;;;;;;;;;;;;;;;13.96;75.66;100833.81;5059966;28;20377;-53
2022/10/22 00:34:53;;;;;;;;;;;;;;;13.97;75.64;100833.72;5058667;28;19921;-50
2022/10/22 00:37:19;;;;;;;;;;;;;;;13.99;75.70;100823.84;5056737;28;19966;-52
2022/10/22 00:39:44;;;;;;;;;;;;;;;14.01;75.69;100824.59;5059241;28;19944;-52
2022/10/22 00:42:15;;;;;;;;;;;;;;;14.01;75.60;100826.41;5058602;28;19975;-49
2022/10/22 00:44:59;;;;;;;;;;;;;;;13.99;75.67;100821.19;5060509;28;19925;-50
2022/10/22 00:47:27;;;;;;;;;;;;;;;13.97;75.84;100824.91;5057444;28;19958;-50
2022/10/22 00:49:53;;;;;;;;;;;;;;;13.96;75.89;100832.03;5060029;28;19999;-50
2022/10/22 00:52:18;;;;;;;;;;;;;;;13.97;75.94;100830.22;5061058;28;19920;-50
2022/10/22 00:54:44;;;;;;;;;;;;;;;13.98;76.02;100846.00;5059758;28;19989;-50
2022/10/22 00:57:09;;;;;;;;;;;;;;;13.99;76.14;100842.38;5059628;28;19966;-51
2022/10/22 00:59:36;;;;;;;;;;;;;;;14.01;75.96;100845.75;5058726;28;19997;-50
2022/10/22 01:02:01;;;;;;;;;;;;;;;14.02;75.95;100849.25;5058322;28;20616;-50
2022/10/22 01:04:26;;;;;;;;;;;;;;;14.02;76.05;100833.38;5059495;28;19946;-53
2022/10/22 01:06:52;;;;;;;;;;;;;;;14.03;76.12;100838.56;5057841;28;19968;-51
2022/10/22 01:09:17;;;;;;;;;;;;;;;14.03;76.13;100822.69;5058039;28;19927;-50
2022/10/22 01:11:42;;;;;;;;;;;;;;;14.02;76.02;100815.69;5043424;28;19924;-54
2022/10/22 01:14:16;;;;;;;;;;;;;;;14.02;76.06;100802.47;5056840;28;19917;-51
2022/10/22 01:16:58;;;;;;;;;;;;;;;14.00;76.16;100796.44;5060266;28;19913;-50
2022/10/22 01:19:42;;;;;;;;;;;;;;;13.99;76.31;100799.19;5056884;28;19936;-49
2022/10/22 01:22:07;;;;;;;;;;;;;;;14.00;76.24;100795.59;5053525;28;20437;-50
2022/10/22 01:24:32;;;;;;;;;;;;;;;14.01;76.37;100789.38;5053755;28;19925;-51
2022/10/22 01:27:10;;;;;;;;;;;;;;;14.01;76.29;100784.91;5056761;28;19920;-51
2022/10/22 01:29:47;;;;;;;;;;;;;;;14.01;76.24;100779.59;5055804;28;19916;-50
2022/10/22 01:32:17;;;;;;;;;;;;;;;14.01;76.39;100782.25;5060491;28;20743;-49
2022/10/22 01:34:45;;;;;;;;;;;;;;;14.02;76.54;100796.34;5055477;28;20341;-52
2022/10/22 01:37:12;;;;;;;;;;;;;;;14.02;76.38;100804.28;5056563;28;19927;-49
2022/10/22 01:39:39;;;;;;;;;;;;;;;14.03;76.37;100801.50;5057854;28;20301;-50
2022/10/22 01:42:05;;;;;;;;;;;;;;;14.02;76.45;100810.41;5051841;28;19924;-52
2022/10/22 01:44:32;;;;;;;;;;;;;;;14.01;76.33;100808.72;5054640;28;19970;-52
2022/10/22 01:47:16;;;;;;;;;;;;;;;14.02;76.52;100814.88;5057733;28;20431;-51
2022/10/22 01:49:53;;;;;;;;;;;;;;;14.02;76.48;100818.34;5057713;28;20007;-50
2022/10/22 01:52:21;;;;;;;;;;;;;;;14.03;76.54;100824.50;5058983;28;19970;-52
2022/10/22 01:54:56;;;;;;;;;;;;;;;14.02;76.41;100828.94;5055388;28;20377;-50
2022/10/22 01:57:28;;;;;;;;;;;;;;;14.03;76.51;100827.13;5054926;28;19916;-53
2022/10/22 02:00:00;;;;;;;;;;;;;;;14.02;76.54;100820.97;5056076;28;19928;-51
2022/10/22 02:02:58;;;;;;;;;;;;;;;14.03;76.46;100835.91;5055399;28;20393;-51
2022/10/22 02:05:32;;;;;;;;;;;;;;;14.03;76.54;100833.25;5021127;28;19930;-50
2022/10/22 02:08:18;;;;;;;;;;;;;;;14.03;76.53;100827.97;5057942;28;19923;-50
2022/10/22 02:10:45;;;;;;;;;;;;;;;14.04;76.54;100823.53;5056803;28;19927;-53
2022/10/22 02:13:16;;;;;;;;;;;;;;;14.04;76.60;100823.53;5056726;28;20007;-51
2022/10/22 02:15:42;;;;;;;;;;;;;;;14.05;76.63;100833.16;5059663;28;19991;-51
2022/10/22 02:18:08;;;;;;;;;;;;;;;14.05;76.52;100842.91;5061520;28;19920;-51
2022/10/22 02:20:35;;;;;;;;;;;;;;;14.05;76.60;100829.66;5059646;28;20514;-52
2022/10/22 02:23:01;;;;;;;;;;;;;;;14.05;76.51;100825.22;5062878;28;20421;-53
2022/10/22 02:25:29;;;;;;;;;;;;;;;14.06;76.60;100831.34;5060806;28;19935;-53
2022/10/22 02:27:57;;;;;;;;;;;;;;;14.05;76.61;100835.81;5060882;28;20488;-50
2022/10/22 02:30:23;;;;;;;;;;;;;;;14.06;76.54;100841.94;5059485;28;19921;-50
2022/10/22 02:33:07;;;;;;;;;;;;;;;14.07;76.60;100838.34;5060531;28;19936;-50
2022/10/22 02:35:34;;;;;;;;;;;;;;;14.08;76.59;100834.75;5052903;28;19924;-52
2022/10/22 02:38:00;;;;;;;;;;;;;;;14.07;76.73;100833.06;5049072;28;19920;-53
2022/10/22 02:40:26;;;;;;;;;;;;;;;14.07;76.62;100823.28;5062537;28;20282;-51
2022/10/22 02:42:52;;;;;;;;;;;;;;;14.09;76.61;100820.56;5064449;28;20308;-50
2022/10/22 02:45:18;;;;;;;;;;;;;;;14.10;76.61;100830.19;5061573;28;19974;-50
2022/10/22 02:47:43;;;;;;;;;;;;;;;14.10;76.61;100833.66;5062630;28;19920;-52
2022/10/22 02:50:09;;;;;;;;;;;;;;;14.11;76.60;100823.94;5064142;28;19921;-51
2022/10/22 02:52:34;;;;;;;;;;;;;;;14.11;76.68;100831.88;5061412;28;19917;-52
2022/10/22 02:55:00;;;;;;;;;;;;;;;14.12;76.62;100830.94;5060544;28;19939;-50
2022/10/22 02:57:25;;;;;;;;;;;;;;;14.12;76.65;100830.94;5060994;28;19916;-51
2022/10/22 02:59:50;;;;;;;;;;;;;;;14.13;76.66;100832.63;5057152;28;20457;-53
2022/10/22 03:02:15;;;;;;;;;;;;;;;14.13;76.69;100829.97;5061420;28;19978;-51
2022/10/22 03:04:41;;;;;;;;;;;;;;;14.14;76.79;100827.22;5060632;28;20055;-49
2022/10/22 03:07:06;;;;;;;;;;;;;;;14.13;76.73;100825.53;5062175;28;20266;-49
2022/10/22 03:09:32;;;;;;;;;;;;;;;14.13;76.71;100828.16;5058195;28;19938;-49
2022/10/22 03:11:57;;;;;;;;;;;;;;;14.14;76.76;100813.97;5061561;28;19920;-50
2022/10/22 03:14:22;;;;;;;;;;;;;;;14.15;76.72;100817.47;5061001;28;19928;-49
2022/10/22 03:16:48;;;;;;;;;;;;;;;14.16;76.88;100808.56;5059679;28;20003;-50
2022/10/22 03:19:13;;;;;;;;;;;;;;;14.15;76.78;100812.16;5059108;28;20397;-50
2022/10/22 03:21:43;;;;;;;;;;;;;;;14.14;76.70;100815.78;5060438;28;19939;-50
2022/10/22 03:24:12;;;;;;;;;;;;;;;14.14;76.83;100824.56;5053155;28;20606;-49
2022/10/22 03:26:38;;;;;;;;;;;;;;;14.14;76.88;100826.38;5060107;28;19928;-49
2022/10/22 03:29:04;;;;;;;;;;;;;;;14.14;76.76;100821.09;5059281;28;19931;-50
2022/10/22 03:31:29;;;;;;;;;;;;;;;14.14;76.78;100819.28;5059214;28;19920;-50
2022/10/22 03:33:54;;;;;;;;;;;;;;;14.15;76.83;100818.31;5060859;28;19921;-50
2022/10/22 03:36:20;;;;;;;;;;;;;;;14.15;76.88;100815.69;5062832;28;19917;-54
2022/10/22 03:38:45;;;;;;;;;;;;;;;14.15;76.96;100826.25;5060045;28;20020;-54
2022/10/22 03:41:10;;;;;;;;;;;;;;;14.18;76.97;100827.81;5064491;28;20009;-52
2022/10/22 03:43:36;;;;;;;;;;;;;;;14.18;76.95;100833.13;5059581;28;19924;-54
2022/10/22 03:46:02;;;;;;;;;;;;;;;14.19;76.83;100824.22;5058577;28;19995;-54
2022/10/22 03:48:27;;;;;;;;;;;;;;;14.17;76.89;100821.72;5060702;28;19939;-51
2022/10/22 03:50:52;;;;;;;;;;;;;;;14.17;76.91;100826.13;5059992;28;20340;-51
2022/10/22 03:53:18;;;;;;;;;;;;;;;14.17;76.95;100840.22;5058646;28;20316;-50
2022/10/22 03:55:43;;;;;;;;;;;;;;;14.18;76.95;100841.91;5061342;28;19972;-50
2022/10/22 03:58:08;;;;;;;;;;;;;;;14.19;76.94;100842.75;5061697;28;19924;-55
2022/10/22 04:00:34;;;;;;;;;;;;;;;14.21;77.03;100838.19;5058815;28;20024;-53
2022/10/22 04:03:00;;;;;;;;;;;;;;;14.21;76.98;100834.72;5058197;28;20055;-52
2022/10/22 04:05:25;;;;;;;;;;;;;;;14.21;77.08;100838.19;5048338;28;19929;-50
2022/10/22 04:07:50;;;;;;;;;;;;;;;14.24;77.07;100843.28;5061546;28;19951;-53
2022/10/22 04:10:16;;;;;;;;;;;;;;;14.27;77.04;100839.56;5060584;28;20385;-52
2022/10/22 04:12:43;;;;;;;;;;;;;;;14.30;76.82;100840.19;5057566;28;19929;-51
2022/10/22 04:15:09;;;;;;;;;;;;;;;14.32;76.94;100845.38;5058608;28;19948;-52
2022/10/22 04:17:34;;;;;;;;;;;;;;;14.31;76.97;100847.16;5059671;28;19928;-52
2022/10/22 04:20:00;;;;;;;;;;;;;;;14.30;77.06;100852.56;5061185;28;19924;-52
2022/10/22 04:22:25;;;;;;;;;;;;;;;14.29;77.06;100854.38;5060913;28;19927;-52
2022/10/22 04:24:50;;;;;;;;;;;;;;;14.30;77.18;100850.75;5058967;28;19929;-52
2022/10/22 04:27:16;;;;;;;;;;;;;;;14.31;77.07;100854.28;5059634;28;19916;-54
2022/10/22 04:29:41;;;;;;;;;;;;;;;14.33;77.09;100858.50;5060922;28;20401;-52
2022/10/22 04:32:06;;;;;;;;;;;;;;;14.35;76.99;100860.19;5058178;28;20028;-51
2022/10/22 04:34:32;;;;;;;;;;;;;;;14.37;76.97;100866.22;5059270;28;19931;-52
2022/10/22 04:36:57;;;;;;;;;;;;;;;14.37;77.03;100860.91;5058392;28;19932;-54
2022/10/22 04:39:22;;;;;;;;;;;;;;;14.37;77.08;100863.56;5056421;28;19935;-51
2022/10/22 04:41:48;;;;;;;;;;;;;;;14.36;77.10;100867.16;5060216;28;19924;-53
2022/10/22 04:44:13;;;;;;;;;;;;;;;14.36;77.18;100859.22;5059662;28;20629;-54
2022/10/22 04:46:38;;;;;;;;;;;;;;;14.38;77.24;100870.56;5063005;28;19928;-52
2022/10/22 04:49:04;;;;;;;;;;;;;;;14.37;77.20;100863.56;5058665;28;19929;-52
2022/10/22 04:51:30;;;;;;;;;;;;;;;14.36;77.20;100865.38;5061270;28;19944;-52
2022/10/22 04:53:55;;;;;;;;;;;;;;;14.36;77.18;100864.53;5059572;28;19970;-52
2022/10/22 04:56:23;;;;;;;;;;;;;;;14.36;77.38;100864.53;5058348;28;19917;-51
2022/10/22 04:58:50;;;;;;;;;;;;;;;14.37;77.31;100863.56;5058896;28;19985;-51
2022/10/22 05:01:19;;;;;;;;;;;;;;;14.38;77.26;100863.44;5057786;28;20028;-50
2022/10/22 05:03:45;;;;;;;;;;;;;;;14.40;77.23;100861.53;5059179;28;19943;-50
2022/10/22 05:06:11;;;;;;;;;;;;;;;14.40;77.11;100861.53;5057927;28;20382;-50
2022/10/22 05:08:36;;;;;;;;;;;;;;;14.41;77.21;100867.69;5059223;28;20017;-50
2022/10/22 05:11:12;;;;;;;;;;;;;;;14.39;77.24;100862.50;5060985;28;19975;-52
2022/10/22 05:13:37;;;;;;;;;;;;;;;14.40;77.31;100860.72;5058119;28;19930;-50
2022/10/22 05:16:03;;;;;;;;;;;;;;;14.39;77.40;100861.66;5056448;28;19925;-52
2022/10/22 05:18:28;;;;;;;;;;;;;;;14.39;77.43;100859.00;5060047;28;20333;-50
2022/10/22 05:20:53;;;;;;;;;;;;;;;14.39;77.39;100866.97;5058887;28;20277;-51
2022/10/22 05:23:19;;;;;;;;;;;;;;;14.38;77.37;100871.38;5052515;28;19924;-50
2022/10/22 05:25:44;;;;;;;;;;;;;;;14.39;77.49;100874.91;5058523;28;19932;-53
2022/10/22 05:28:09;;;;;;;;;;;;;;;14.38;77.59;100878.50;5058091;28;20001;-50
2022/10/22 05:30:35;;;;;;;;;;;;;;;14.38;77.64;100873.19;5057457;28;19921;-51
2022/10/22 05:33:00;;;;;;;;;;;;;;;14.39;77.57;100875.72;5055500;28;19974;-52
2022/10/22 05:35:25;;;;;;;;;;;;;;;14.39;77.60;100872.25;5057530;28;20585;-51
2022/10/22 05:37:50;;;;;;;;;;;;;;;14.39;77.58;100877.53;5058287;28;20011;-50
2022/10/22 05:40:16;;;;;;;;;;;;;;;14.39;77.66;100882.84;5058352;28;19931;-51
2022/10/22 05:42:41;;;;;;;;;;;;;;;14.39;77.60;100880.19;5059698;28;20034;-54
2022/10/22 05:45:07;;;;;;;;;;;;;;;14.38;77.56;100879.34;5058137;28;20386;-53
2022/10/22 05:47:33;;;;;;;;;;;;;;;14.37;77.70;100876.81;5056344;28;19928;-50
2022/10/22 05:49:58;;;;;;;;;;;;;;;14.37;77.72;100871.50;5055820;28;20328;-51
2022/10/22 05:52:23;;;;;;;;;;;;;;;14.38;77.67;100875.84;5058122;28;20456;-51
2022/10/22 05:54:49;;;;;;;;;;;;;;;14.38;77.64;100879.34;5059745;28;19927;-50
2022/10/22 05:57:14;;;;;;;;;;;;;;;14.37;77.75;100866.22;5058202;28;20396;-53
2022/10/22 05:59:39;;;;;;;;;;;;;;;14.35;77.71;100868.97;5055800;28;19932;-49
2022/10/22 06:02:05;;;;;;;;;;;;;;;14.36;77.78;100875.09;5056741;28;20032;-50
2022/10/22 06:04:30;;;;;;;;;;;;;;;14.37;77.71;100882.09;5051926;28;20408;-50
2022/10/22 06:06:55;;;;;;;;;;;;;;;14.37;77.77;100888.22;5056958;28;19936;-50
2022/10/22 06:09:22;;;;;;;;;;;;;;;14.38;77.76;100884.63;5059388;28;20255;-51
2022/10/22 06:11:49;;;;;;;;;;;;;;;14.40;77.64;100887.19;5059806;28;20009;-50
2022/10/22 06:14:15;;;;;;;;;;;;;;;14.40;77.73;100889.81;5057376;28;20389;-49
2022/10/22 06:16:40;;;;;;;;;;;;;;;14.40;77.63;100876.59;5056899;28;20021;-52
2022/10/22 06:19:06;;;;;;;;;;;;;;;14.41;77.63;100883.56;5057963;28;19920;-50
2022/10/22 06:21:32;;;;;;;;;;;;;;;14.43;77.67;100884.31;5056277;28;19916;-50
2022/10/22 06:23:58;;;;;;;;;;;;;;;14.41;77.71;100888.88;5057446;28;19921;-52
2022/10/22 06:26:24;;;;;;;;;;;;;;;14.42;77.71;100895.88;5059293;28;19928;-51
2022/10/22 06:28:49;;;;;;;;;;;;;;;14.42;77.73;100906.44;5060569;28;19925;-50
2022/10/22 06:31:14;;;;;;;;;;;;;;;14.42;77.72;100911.75;5056318;28;19925;-51
2022/10/22 06:33:43;;;;;;;;;;;;;;;14.42;77.67;100906.44;5051316;28;19978;-49
2022/10/22 06:36:10;;;;;;;;;;;;;;;14.42;77.70;100911.75;5046445;28;20042;-50
2022/10/22 06:38:35;;;;;;;;;;;;;;;14.41;77.71;100905.59;5057050;28;19936;-49
2022/10/22 06:41:01;;;;;;;;;;;;;;;14.43;77.70;100900.19;5053654;28;19916;-50
2022/10/22 06:43:27;;;;;;;;;;;;;;;14.43;77.80;100902.84;5056917;28;19920;-50
2022/10/22 06:45:57;;;;;;;;;;;;;;;14.44;77.76;100905.38;5056487;28;20632;-52
2022/10/22 06:48:22;;;;;;;;;;;;;;;14.48;77.77;100906.00;5056015;28;19917;-52
2022/10/22 06:50:47;;;;;;;;;;;;;;;14.48;77.80;100912.16;5057467;28;20046;-50
2022/10/22 06:53:13;;;;;;;;;;;;;;;14.50;77.69;100913.84;5057243;28;19936;-50
2022/10/22 06:55:38;;;;;;;;;;;;;;;14.53;77.73;100919.75;5058586;28;20297;-51
2022/10/22 06:58:03;;;;;;;;;;;;;;;14.54;77.60;100920.59;5057511;28;19935;-50
2022/10/22 07:00:28;;;;;;;;;;;;;;;14.56;77.58;100930.13;5057738;28;20035;-50
2022/10/22 07:02:54;;;;;;;;;;;;;;;14.58;77.51;100932.66;5060910;28;19979;-49
2022/10/22 07:05:19;;;;;;;;;;;;;;;14.55;77.47;100931.09;5061076;28;20330;-49
2022/10/22 07:07:45;;;;;;;;;;;;;;;14.54;77.43;100929.41;5063036;28;20365;-51
2022/10/22 07:10:10;;;;;;;;;;;;;;;14.54;77.53;100933.81;5062309;28;19924;-50
2022/10/22 07:12:35;;;;;;;;;;;;;;;14.54;77.56;100925.88;5058008;28;19921;-50
2022/10/22 07:15:01;;;;;;;;;;;;;;;14.54;77.64;100928.53;5059911;28;19924;-53
2022/10/22 07:17:26;;;;;;;;;;;;;;;14.53;77.75;100934.78;5059863;28;20042;-50
2022/10/22 07:19:51;;;;;;;;;;;;;;;14.51;77.67;100947.31;5054522;28;19943;-50
2022/10/22 07:22:17;;;;;;;;;;;;;;;14.50;77.80;100940.31;5060624;28;19931;-50
2022/10/22 07:24:42;;;;;;;;;;;;;;;14.50;77.75;100943.81;5059760;28;20476;-51
2022/10/22 07:27:07;;;;;;;;;;;;;;;14.50;77.78;100948.25;5059269;28;19928;-51
2022/10/22 07:29:33;;;;;;;;;;;;;;;14.51;77.77;100953.44;5061318;28;19924;-51
2022/10/22 07:31:58;;;;;;;;;;;;;;;14.52;77.84;100949.84;5059174;28;20404;-50
2022/10/22 07:34:24;;;;;;;;;;;;;;;14.55;77.84;100962.00;5059956;28;20049;-51
2022/10/22 07:36:49;;;;;;;;;;;;;;;14.56;77.79;100956.63;5056095;28;19974;-54
2022/10/22 07:39:14;;;;;;;;;;;;;;;14.57;77.65;100963.59;5050713;28;20637;-52
2022/10/22 07:41:40;;;;;;;;;;;;;;;14.58;77.84;100960.00;5060249;28;19920;-51
2022/10/22 07:44:05;;;;;;;;;;;;;;;14.60;77.72;100967.81;5061654;28;20382;-50
2022/10/22 07:46:30;;;;;;;;;;;;;;;14.60;77.70;100965.19;5055453;28;19974;-50
2022/10/22 07:48:56;;;;;;;;;;;;;;;14.60;77.69;100970.47;5059366;28;19920;-51
2022/10/22 07:51:21;;;;;;;;;;;;;;;14.61;77.80;100970.34;5040421;28;19926;-54
2022/10/22 07:53:46;;;;;;;;;;;;;;;14.62;77.74;100973.88;5060211;28;19971;-51
2022/10/22 07:56:12;;;;;;;;;;;;;;;14.64;77.81;100974.59;5055487;28;20302;-50
2022/10/22 07:58:38;;;;;;;;;;;;;;;14.65;77.88;100976.31;5053589;28;20401;-53
2022/10/22 08:01:06;;;;;;;;;;;;;;;14.68;77.94;100981.38;5059519;28;19920;-52
2022/10/22 08:03:31;;;;;;;;;;;;;;;14.68;77.96;100981.38;5060796;28;20461;-51
2022/10/22 08:05:56;;;;;;;;;;;;;;;14.71;77.88;100986.47;5051249;28;20452;-52
2022/10/22 08:08:22;;;;;;;;;;;;;;;14.74;77.79;100980.13;5055633;28;19920;-52
2022/10/22 08:10:51;;;;;;;;;;;;;;;14.77;77.76;100990.47;5058103;28;20567;-53
2022/10/22 08:13:16;;;;;;;;;;;;;;;14.78;77.68;100978.94;5056559;28;19946;-52
2022/10/22 08:15:42;;;;;;;;;;;;;;;14.80;77.71;100977.03;5056785;28;19925;-53
2022/10/22 08:18:07;;;;;;;;;;;;;;;14.81;77.69;100980.53;5055469;28;19920;-52
2022/10/22 08:20:32;;;;;;;;;;;;;;;14.80;77.71;100977.03;5054076;28;19943;-52
2022/10/22 08:22:58;;;;;;;;;;;;;;;14.79;77.71;100983.28;5057193;28;19931;-54
2022/10/22 08:25:24;;;;;;;;;;;;;;;14.82;77.77;100980.41;5056003;28;19932;-52
2022/10/22 08:27:49;;;;;;;;;;;;;;;14.84;77.79;100997.03;5059397;28;20404;-52
2022/10/22 08:30:14;;;;;;;;;;;;;;;14.85;77.70;100988.13;5057425;28;19925;-52
2022/10/22 08:32:40;;;;;;;;;;;;;;;14.86;77.63;101003.09;5058602;28;19930;-52
2022/10/22 08:35:06;;;;;;;;;;;;;;;14.85;77.65;101001.38;5054075;28;19936;-50
2022/10/22 08:37:31;;;;;;;;;;;;;;;14.85;77.79;100988.13;5060256;28;19970;-50
2022/10/22 08:39:56;;;;;;;;;;;;;;;14.86;77.78;100989.84;5055534;28;19928;-52
2022/10/22 08:42:34;;;;;;;;;;;;;;;14.87;77.78;101012.72;5043341;28;19925;-50
2022/10/22 08:45:07;;;;;;;;;;;;;;;14.90;77.74;101019.59;5057408;28;19967;-51
2022/10/22 08:47:41;;;;;;;;;;;;;;;14.90;77.71;101020.44;5058491;28;19962;-50
2022/10/22 08:50:11;;;;;;;;;;;;;;;14.93;77.85;101024.69;5059446;28;19935;-50
2022/10/22 08:52:39;;;;;;;;;;;;;;;14.94;77.76;101013.97;5059856;28;20065;-51
2022/10/22 08:55:08;;;;;;;;;;;;;;;14.96;77.87;101000.63;5056066;28;20420;-54
2022/10/22 08:57:36;;;;;;;;;;;;;;;15.00;77.80;101004.72;5059291;28;19920;-52
2022/10/22 09:00:10;;;;;;;;;;;;;;;15.02;77.67;101004.63;5059493;28;19971;-50
2022/10/22 09:02:39;;;;;;;;;;;;;;;15.04;77.86;101006.19;5059338;28;20011;-51
2022/10/22 09:05:18;;;;;;;;;;;;;;;15.09;78.06;101016.47;5059000;28;20031;-50
2022/10/22 09:07:48;;;;;;;;;;;;;;;15.14;77.82;101019.63;5057918;28;20042;-50
2022/10/22 09:10:14;;;;;;;;;;;;;;;15.17;77.75;101016.75;5058028;28;19937;-50
2022/10/22 09:12:39;;;;;;;;;;;;;;;15.20;77.74;101018.34;5056846;28;19920;-52
2022/10/22 09:15:05;;;;;;;;;;;;;;;15.21;77.65;101004.13;5044924;28;20011;-51
2022/10/22 09:17:37;;;;;;;;;;;;;;;15.26;77.74;101015.25;5051213;28;19970;-50
2022/10/22 09:20:22;;;;;;;;;;;;;;;15.29;77.56;101016.81;5058190;28;19921;-52
2022/10/22 09:23:00;;;;;;;;;;;;;;;15.32;77.64;101017.44;5056402;28;20001;-50
2022/10/22 09:25:26;;;;;;;;;;;;;;;15.35;77.55;101027.81;5057820;28;20425;-50
2022/10/22 09:27:57;;;;;;;;;;;;;;;15.39;77.48;101033.72;5058893;28;19971;-50
2022/10/22 09:30:24;;;;;;;;;;;;;;;15.42;77.40;101037.97;5060107;28;19931;-50
2022/10/22 09:33:01;;;;;;;;;;;;;;;15.44;77.47;101042.19;5060361;28;20397;-52
2022/10/22 09:35:27;;;;;;;;;;;;;;;15.46;77.36;101042.06;5057128;28;19972;-51
2022/10/22 09:37:54;;;;;;;;;;;;;;;15.45;77.32;101038.59;5053977;28;19920;-54
2022/10/22 09:40:19;;;;;;;;;;;;;;;15.44;77.15;101036.91;5057381;28;19969;-52
2022/10/22 09:42:45;;;;;;;;;;;;;;;15.45;77.17;101033.28;5055447;28;19932;-54
2022/10/22 09:45:15;;;;;;;;;;;;;;;15.45;77.25;101038.59;5056956;28;19936;-54
2022/10/22 09:47:41;;;;;;;;;;;;;;;15.45;77.09;101038.59;5056368;28;19931;-53
2022/10/22 09:50:22;;;;;;;;;;;;;;;15.45;77.19;101054.50;5058846;28;19917;-53
2022/10/22 09:52:58;;;;;;;;;;;;;;;15.45;77.15;101048.34;5056033;28;19933;-52
2022/10/22 09:55:24;;;;;;;;;;;;;;;15.47;77.19;101055.25;5053083;28;19928;-52
2022/10/22 09:57:54;;;;;;;;;;;;;;;15.49;77.15;101055.97;5059788;28;19924;-51
2022/10/22 10:00:19;;;;;;;;;;;;;;;15.49;77.07;101052.47;5058077;28;19928;-53
2022/10/22 10:02:45;;;;;;;;;;;;;;;15.47;77.11;101052.59;5056328;28;19928;-50
2022/10/22 10:05:18;;;;;;;;;;;;;;;15.47;77.06;101052.59;5055621;28;19944;-52
2022/10/22 10:07:43;;;;;;;;;;;;;;;15.47;77.20;101052.59;5053732;28;19970;-53
2022/10/22 10:10:20;;;;;;;;;;;;;;;15.49;77.20;101058.63;5054347;28;19924;-50
2022/10/22 10:12:45;;;;;;;;;;;;;;;15.50;77.23;101060.28;5054805;28;19921;-53
2022/10/22 10:15:21;;;;;;;;;;;;;;;15.51;77.31;101059.34;5058399;28;19923;-53
2022/10/22 10:17:47;;;;;;;;;;;;;;;15.54;77.17;101064.41;5057526;28;20336;-54
2022/10/22 10:20:31;;;;;;;;;;;;;;;15.58;77.31;101064.19;5057232;28;20370;-53
2022/10/22 10:23:02;;;;;;;;;;;;;;;15.61;77.16;101063.97;5056972;28;20638;-53
2022/10/22 10:25:30;;;;;;;;;;;;;;;15.65;77.16;101057.50;5057087;28;19923;-53
2022/10/22 10:28:00;;;;;;;;;;;;;;;15.68;76.97;101062.56;5059065;28;19921;-54
2022/10/22 10:30:25;;;;;;;;;;;;;;;15.70;77.10;101068.59;5056016;28;19921;-55
2022/10/22 10:33:09;;;;;;;;;;;;;;;15.73;77.12;101065.72;5058423;28;20289;-52
2022/10/22 10:35:54;;;;;;;;;;;;;;;15.77;77.13;101064.53;5058927;28;19943;-53
2022/10/22 10:38:19;;;;;;;;;;;;;;;15.79;76.91;101062.63;5063125;28;20305;-52
2022/10/22 10:40:50;;;;;;;;;;;;;;;15.81;76.97;101067.81;5060632;28;19977;-52
2022/10/22 10:43:21;;;;;;;;;;;;;;;15.82;76.83;101059.72;5061518;28;20406;-52
2022/10/22 10:45:58;;;;;;;;;;;;;;;15.84;76.87;101064.91;5059689;28;19924;-54
2022/10/22 10:48:39;;;;;;;;;;;;;;;15.87;77.04;101053.25;5058529;28;19917;-52
2022/10/22 10:51:10;;;;;;;;;;;;;;;15.90;76.86;101061.00;5058924;28;19928;-53
2022/10/22 10:53:46;;;;;;;;;;;;;;;15.93;76.65;101068.72;5057960;28;19925;-54
2022/10/22 10:56:30;;;;;;;;;;;;;;;15.94;76.62;101076.56;5059005;28;19921;-53
2022/10/22 10:58:55;;;;;;;;;;;;;;;15.96;76.46;101084.41;5061024;28;19975;-51
2022/10/22 11:01:28;;;;;;;;;;;;;;;15.99;76.59;101089.47;5060541;28;20013;-52
2022/10/22 11:04:05;;;;;;;;;;;;;;;15.98;76.57;101083.34;5059797;28;19924;-52
2022/10/22 11:06:31;;;;;;;;;;;;;;;16.00;76.64;101085.88;5059601;28;19975;-52
2022/10/22 11:08:59;;;;;;;;;;;;;;;15.99;76.62;101070.91;5059063;28;19917;-52
2022/10/22 11:11:25;;;;;;;;;;;;;;;15.99;76.44;101079.72;5058548;28;19939;-53
2022/10/22 11:13:59;;;;;;;;;;;;;;;16.01;76.68;101074.28;5060638;28;19925;-52
2022/10/22 11:16:24;;;;;;;;;;;;;;;16.03;76.71;101074.19;5058069;28;20007;-54
2022/10/22 11:19:01;;;;;;;;;;;;;;;16.04;76.75;101075.84;5061216;28;20007;-52
2022/10/22 11:21:30;;;;;;;;;;;;;;;16.04;76.48;101078.50;5059841;28;19921;-52
2022/10/22 11:24:04;;;;;;;;;;;;;;;16.07;76.54;101070.31;5060947;28;19928;-52
2022/10/22 11:26:36;;;;;;;;;;;;;;;16.10;76.49;101070.97;5061985;28;20668;-53
2022/10/22 11:29:03;;;;;;;;;;;;;;;16.11;76.47;101075.28;5059084;28;19931;-54
2022/10/22 11:31:29;;;;;;;;;;;;;;;16.12;76.41;101079.63;5056477;28;20297;-52
2022/10/22 11:34:03;;;;;;;;;;;;;;;16.13;76.56;101083.97;5057571;28;20297;-52
2022/10/22 11:36:29;;;;;;;;;;;;;;;16.15;76.59;101076.75;5061507;28;19924;-55
2022/10/22 11:38:54;;;;;;;;;;;;;;;16.18;76.19;101072.16;5057747;28;20325;-54
2022/10/22 11:41:23;;;;;;;;;;;;;;;16.20;76.41;101080.88;5056977;28;19928;-54
2022/10/22 11:43:57;;;;;;;;;;;;;;;16.22;76.44;101079.78;5058971;28;19927;-50
2022/10/22 11:46:25;;;;;;;;;;;;;;;16.25;76.35;101076.06;5042208;28;19924;-51
2022/10/22 11:49:10;;;;;;;;;;;;;;;16.27;76.36;101082.06;5048208;28;19920;-50
2022/10/22 11:51:37;;;;;;;;;;;;;;;16.30;76.52;101071.22;5057654;28;19998;-50
2022/10/22 11:54:22;;;;;;;;;;;;;;;16.34;76.36;101075.34;5055395;28;19916;-50
2022/10/22 11:56:50;;;;;;;;;;;;;;;16.38;76.35;101071.50;5058053;28;19928;-51
2022/10/22 11:59:36;;;;;;;;;;;;;;;16.42;76.04;101066.78;5062095;28;19963;-50
2022/10/22 12:02:01;;;;;;;;;;;;;;;16.46;76.14;101066.41;5057597;28;20003;-55
2022/10/22 12:04:39;;;;;;;;;;;;;;;16.53;76.08;101074.75;5059058;28;20023;-52
2022/10/22 12:07:24;;;;;;;;;;;;;;;16.59;76.02;101070.75;5060301;28;19926;-51
2022/10/22 12:09:50;;;;;;;;;;;;;;;16.63;75.88;101074.88;5057926;28;19916;-53
2022/10/22 12:12:19;;;;;;;;;;;;;;;16.65;75.72;101070.31;5058048;28;19924;-54
2022/10/22 12:14:58;;;;;;;;;;;;;;;16.67;75.89;101076.34;5051116;28;19920;-51
2022/10/22 12:17:24;;;;;;;;;;;;;;;16.70;75.97;101078.75;5054566;28;19924;-54
2022/10/22 12:20:01;;;;;;;;;;;;;;;16.75;75.92;101071.25;5056832;28;19928;-51
2022/10/22 12:22:28;;;;;;;;;;;;;;;16.80;75.60;101084.16;5055477;28;19932;-52
2022/10/22 12:24:59;;;;;;;;;;;;;;;16.81;75.42;101085.88;5050627;28;19920;-52
2022/10/22 12:27:38;;;;;;;;;;;;;;;16.82;75.57;101081.41;5054636;28;19924;-52
2022/10/22 12:30:22;;;;;;;;;;;;;;;16.82;75.37;101084.91;5053269;28;19916;-52
2022/10/22 12:32:50;;;;;;;;;;;;;;;16.83;75.34;101091.06;5052019;28;19920;-54
2022/10/22 12:35:17;;;;;;;;;;;;;;;16.83;75.19;101101.72;5054800;28;19925;-53
2022/10/22 12:37:42;;;;;;;;;;;;;;;16.82;75.38;101084.06;5056890;28;19935;-55
2022/10/22 12:40:25;;;;;;;;;;;;;;;16.81;75.22;101085.03;5055166;28;20315;-55